createdAt,value
2023-02-22T00:03:16.340Z,3.40
2023-02-22T00:08:25.126Z,3.90
2023-02-22T00:13:39.054Z,3.97
2023-02-22T00:18:49.040Z,3.67
2023-02-22T00:23:54.822Z,3.47
2023-02-22T00:28:58.260Z,3.93
2023-02-22T00:34:01.682Z,3.77
2023-02-22T00:39:09.639Z,3.87
2023-02-22T00:44:12.999Z,4.30
2023-02-22T00:49:17.965Z,3.17
2023-02-22T00:54:23.102Z,4.13
2023-02-22T00:59:27.399Z,4.30
2023-02-22T01:04:31.017Z,4.53
2023-02-22T01:09:36.197Z,4.00
2023-02-22T01:14:40.269Z,4.60
2023-02-22T01:19:44.673Z,4.17
2023-02-22T01:24:49.620Z,4.50
2023-02-22T01:29:54.046Z,4.27
2023-02-22T01:34:57.580Z,4.80
2023-02-22T01:40:04.261Z,4.47
2023-02-22T01:45:45.253Z,5.20
2023-02-22T01:50:55.433Z,4.10
2023-02-22T01:56:01.628Z,4.50
2023-02-22T02:01:12.550Z,4.53
2023-02-22T02:06:16.994Z,4.47
2023-02-22T02:11:26.629Z,4.07
2023-02-22T02:16:39.106Z,4.03
2023-02-22T02:22:19.210Z,4.00
2023-02-22T02:27:27.773Z,3.70
2023-02-22T02:32:40.809Z,3.33
2023-02-22T02:37:55.493Z,3.23
2023-02-22T02:43:02.755Z,3.23
2023-02-22T02:48:10.422Z,3.67
2023-02-22T02:53:17.784Z,4.40
2023-02-22T02:58:24.275Z,4.50
2023-02-22T03:03:53.593Z,4.33
2023-02-22T03:09:03.756Z,4.30
2023-02-22T03:14:17.881Z,4.37
2023-02-22T03:19:32.581Z,4.63
2023-02-22T03:24:42.593Z,5.07
2023-02-22T03:29:47.642Z,4.13
2023-02-22T03:34:58.207Z,4.33
2023-02-22T03:40:07.360Z,4.23
2023-02-22T03:45:13.333Z,4.23
2023-02-22T03:50:21.712Z,4.33
2023-02-22T03:55:28.987Z,4.47
2023-02-22T04:00:34.984Z,4.53
2023-02-22T04:05:41.772Z,4.73
2023-02-22T04:10:45.179Z,4.80
2023-02-22T04:15:49.597Z,4.33
2023-02-22T04:20:55.356Z,4.37
2023-02-22T04:25:58.723Z,4.33
2023-02-22T04:31:04.440Z,4.20
2023-02-22T04:36:13.654Z,4.10
2023-02-22T04:41:19.540Z,3.93
2023-02-22T04:46:28.883Z,4.43
2023-02-22T04:51:33.904Z,4.90
2023-02-22T04:56:38.305Z,4.23
2023-02-22T05:01:41.779Z,4.73
2023-02-22T05:06:50.901Z,4.10
2023-02-22T05:11:54.743Z,4.50
2023-02-22T05:16:58.608Z,4.23
2023-02-22T05:22:10.208Z,4.03
2023-02-22T05:27:16.706Z,3.90
2023-02-22T05:32:20.133Z,4.50
2023-02-22T05:37:25.892Z,4.43
2023-02-22T05:42:30.328Z,4.37
2023-02-22T05:47:36.397Z,4.23
2023-02-22T05:52:43.207Z,4.50
2023-02-22T05:57:51.931Z,4.43
2023-02-22T06:02:56.813Z,4.43
2023-02-22T06:08:01.817Z,4.03
2023-02-22T06:13:06.645Z,4.10
2023-02-22T06:18:10.127Z,3.87
2023-02-22T06:23:15.885Z,4.27
2023-02-22T06:28:19.321Z,4.23
2023-02-22T06:33:29.480Z,3.90
2023-02-22T06:38:34.580Z,4.10
2023-02-22T06:43:37.973Z,5.00
2023-02-22T06:48:43.370Z,4.80
2023-02-22T06:53:49.047Z,4.27
2023-02-22T06:58:52.379Z,4.07
2023-02-22T07:03:55.832Z,3.97
2023-02-22T07:09:01.196Z,3.47
2023-02-22T07:14:06.937Z,3.70
2023-02-22T07:19:19.109Z,3.38
2023-02-22T07:24:23.922Z,3.45
2023-02-22T07:29:36.133Z,3.85
2023-02-22T07:34:39.485Z,3.40
2023-02-22T07:39:44.223Z,3.13
2023-02-22T07:44:51.218Z,3.28
2023-02-22T07:49:54.515Z,3.25
2023-02-22T07:55:00.880Z,3.45
2023-02-22T08:00:05.920Z,3.15
2023-02-22T08:05:13.070Z,3.38
2023-02-22T08:10:19.637Z,3.38
2023-02-22T08:15:26.655Z,3.22
2023-02-22T08:20:31.310Z,3.70
2023-02-22T08:25:36.527Z,3.28
2023-02-22T08:30:42.912Z,2.72
2023-02-22T08:35:48.835Z,3.25
2023-02-22T08:40:54.195Z,3.17
2023-02-22T08:45:58.000Z,3.00
2023-02-22T08:51:01.412Z,2.58
2023-02-22T08:56:08.045Z,2.65
2023-02-22T09:01:12.099Z,2.95
2023-02-22T09:06:16.151Z,3.10
2023-02-22T09:11:21.087Z,2.42
2023-02-22T09:16:24.492Z,3.08
2023-02-22T09:21:41.509Z,2.70
2023-02-22T09:26:53.502Z,3.00
2023-02-22T09:31:58.319Z,3.00
2023-02-22T09:37:02.214Z,3.50
2023-02-22T09:42:17.119Z,2.97
2023-02-22T09:47:32.546Z,2.97
2023-02-22T09:52:55.514Z,3.10
2023-02-22T09:58:07.175Z,3.22
2023-02-22T10:03:25.620Z,2.42
2023-02-22T10:08:36.061Z,3.03
2023-02-22T10:13:52.085Z,2.58
2023-02-22T10:19:18.041Z,2.50
2023-02-22T10:24:40.084Z,2.40
2023-02-22T10:30:00.605Z,2.33
2023-02-22T10:35:16.219Z,2.30
2023-02-22T10:40:32.225Z,1.83
2023-02-22T10:45:37.471Z,1.95
2023-02-22T10:50:45.972Z,1.95
2023-02-22T10:56:09.501Z,1.77
2023-02-22T11:01:36.411Z,1.88
2023-02-22T11:06:47.465Z,2.38
2023-02-22T11:12:08.656Z,1.77
2023-02-22T11:17:30.476Z,1.90
2023-02-22T11:22:41.269Z,1.80
2023-02-22T11:27:47.143Z,1.70
2023-02-22T11:32:59.813Z,2.60
2023-02-22T11:38:16.316Z,2.30
2023-02-22T11:43:20.944Z,2.67
2023-02-22T11:48:25.702Z,2.63
2023-02-22T11:53:45.192Z,2.60
2023-02-22T11:58:54.529Z,2.60
2023-02-22T12:04:49.499Z,2.42
2023-02-22T12:10:09.500Z,2.95
2023-02-22T12:15:25.351Z,2.95
2023-02-22T12:20:47.728Z,2.83
2023-02-22T12:26:00.313Z,3.08
2023-02-22T12:31:40.211Z,3.00
2023-02-22T12:36:48.915Z,3.53
2023-02-22T12:41:57.330Z,4.07
2023-02-22T12:47:07.798Z,4.43
2023-02-22T12:52:27.900Z,5.15
2023-02-22T12:57:44.539Z,5.50
2023-02-22T13:02:59.363Z,4.50
2023-02-22T13:08:28.456Z,3.63
2023-02-22T13:19:31.162Z,3.92
2023-02-22T13:24:56.794Z,4.15
2023-02-22T13:30:01.895Z,4.70
2023-02-22T13:35:26.190Z,3.97
2023-02-22T13:40:55.597Z,3.33
2023-02-22T13:46:39.126Z,2.78
2023-02-22T13:51:51.968Z,2.60
2023-02-22T13:56:59.108Z,2.85
2023-02-22T14:02:04.455Z,2.60
2023-02-22T14:07:53.173Z,3.20
2023-02-22T14:13:05.948Z,3.33
2023-02-22T14:18:18.206Z,3.33
2023-02-22T14:23:35.173Z,2.80
2023-02-22T14:28:55.576Z,3.70
2023-02-22T14:34:03.420Z,2.97
2023-02-22T14:39:18.509Z,3.50
2023-02-22T14:44:27.687Z,3.53
2023-02-22T14:49:36.154Z,3.22
2023-02-22T14:55:03.076Z,3.03
2023-02-22T15:00:21.083Z,3.50
2023-02-22T15:05:24.361Z,4.72
2023-02-22T15:10:31.076Z,4.07
2023-02-22T15:15:36.683Z,3.72
2023-02-22T15:20:40.076Z,4.90
2023-02-22T15:25:49.467Z,4.75
2023-02-22T15:31:32.035Z,4.88
2023-02-22T15:36:36.655Z,5.20
2023-02-22T15:41:39.918Z,4.88
2023-02-22T15:46:43.175Z,5.93
2023-02-22T15:51:54.400Z,5.80
2023-02-22T15:56:58.084Z,5.40
2023-02-22T16:02:01.771Z,8.15
2023-02-22T16:07:17.153Z,6.97
2023-02-22T16:12:28.906Z,7.05
2023-02-22T16:17:36.850Z,6.88
2023-02-22T16:22:49.227Z,6.03
2023-02-22T16:27:59.900Z,6.47
2023-02-22T16:33:06.673Z,6.28
2023-02-22T16:38:17.253Z,6.13
2023-02-22T16:43:22.138Z,6.15
2023-02-22T16:48:27.169Z,5.78
2023-02-22T16:53:34.010Z,6.28
2023-02-22T16:58:40.550Z,7.65
2023-02-22T17:03:44.008Z,6.90
2023-02-22T17:08:48.852Z,5.82
2023-02-22T17:13:52.589Z,6.20
2023-02-22T17:18:55.949Z,6.13
2023-02-22T17:24:03.907Z,5.45
2023-02-22T17:29:08.408Z,6.25
2023-02-22T17:34:11.900Z,7.18
2023-02-22T17:39:22.313Z,6.05
2023-02-22T17:44:26.541Z,6.65
2023-02-22T17:49:30.215Z,6.15
2023-02-22T17:54:36.609Z,5.80
2023-02-22T17:59:40.678Z,5.72
2023-02-22T18:04:44.464Z,8.27
2023-02-22T18:09:49.569Z,6.70
2023-02-22T18:14:54.812Z,7.47
2023-02-22T18:19:58.864Z,7.40
2023-02-22T18:25:04.245Z,7.63
2023-02-22T18:30:08.381Z,8.13
2023-02-22T18:35:15.044Z,7.60
2023-02-22T18:40:25.829Z,8.75
2023-02-22T18:45:32.161Z,8.00
2023-02-22T18:50:40.196Z,9.40
2023-02-22T18:55:44.937Z,8.35
2023-02-22T19:00:54.065Z,9.10
2023-02-22T19:06:08.883Z,10.02
2023-02-22T19:11:18.683Z,10.40
2023-02-22T19:16:29.820Z,9.90
2023-02-22T19:21:34.503Z,10.32
2023-02-22T19:26:39.153Z,10.50
2023-02-22T19:31:48.361Z,10.68
2023-02-22T19:36:56.043Z,9.90
2023-02-22T19:42:05.135Z,11.18
2023-02-22T19:47:16.275Z,12.35
2023-02-22T19:52:19.904Z,11.07
2023-02-22T20:03:05.740Z,12.07
2023-02-22T20:08:09.691Z,10.93
2023-02-22T20:13:18.267Z,10.35
2023-02-22T20:18:23.057Z,10.75
2023-02-22T20:23:26.574Z,10.55
2023-02-22T20:28:31.499Z,10.32
2023-02-22T20:33:44.491Z,11.77
2023-02-22T20:38:48.060Z,12.98
2023-02-22T20:43:53.325Z,12.23
2023-02-22T20:48:57.644Z,11.25
2023-02-22T20:54:05.226Z,11.70
2023-02-22T20:59:13.260Z,11.43
2023-02-22T21:04:17.215Z,11.80
2023-02-22T21:09:22.673Z,12.45
2023-02-22T21:14:35.733Z,12.95
2023-02-22T21:19:39.973Z,12.65
2023-02-22T21:24:44.359Z,12.38
2023-02-22T21:29:58.573Z,12.02
2023-02-22T21:35:02.014Z,12.40
2023-02-22T21:40:10.055Z,12.02
2023-02-22T21:45:15.385Z,12.25
2023-02-22T21:50:20.640Z,11.40
2023-02-22T21:55:25.180Z,11.60
2023-02-22T22:00:35.053Z,10.98
2023-02-22T22:05:45.389Z,10.20
2023-02-22T22:10:55.480Z,10.70
2023-02-22T22:16:09.774Z,10.55
2023-02-22T22:21:17.855Z,10.50
2023-02-22T22:26:21.879Z,10.07
2023-02-22T22:31:28.986Z,10.10
2023-02-22T22:36:34.452Z,10.80
2023-02-22T22:41:38.997Z,9.68
2023-02-22T22:46:43.994Z,8.63
2023-02-22T22:51:48.550Z,8.48
2023-02-22T22:56:51.778Z,8.80
2023-02-22T23:01:57.545Z,8.45
2023-02-22T23:07:01.744Z,8.13
2023-02-22T23:12:09.793Z,8.98
2023-02-22T23:17:16.322Z,8.32
2023-02-22T23:22:19.617Z,7.82
2023-02-22T23:27:23.774Z,8.75
2023-02-22T23:32:28.615Z,8.63
2023-02-22T23:37:35.521Z,8.25
2023-02-22T23:42:38.912Z,7.88
2023-02-22T23:47:43.924Z,8.40
2023-02-22T23:52:57.006Z,9.88
2023-02-22T23:58:00.632Z,10.88
